Time;durP1;ratioP1;P1;durP2;ratioP2;P2;SDS_P1;SDS_P2;PMS_P1;PMS_P2;Temp;Humidity;BMP_temperature;BMP_pressure;BME280_temperature;BME280_humidity;BME280_pressure;Samples;Min_cycle;Max_cycle;Signal;HPM_P1;HPM_P2
2021/10/08 00:00:33;;;;;;;4.03;3.37;;;10.60;99.90;;;;;;4989956;28;20259;-65
2021/10/08 00:03:01;;;;;;;3.40;3.10;;;10.60;99.90;;;;;;4989832;28;20241;-65
2021/10/08 00:05:33;;;;;;;3.50;3.20;;;10.60;99.90;;;;;;4979203;28;20256;-66
2021/10/08 00:08:02;;;;;;;3.60;3.30;;;10.60;99.90;;;;;;4992128;28;20242;-64
2021/10/08 00:10:31;;;;;;;3.67;3.37;;;10.60;99.90;;;;;;4981148;28;20230;-65
2021/10/08 00:13:00;;;;;;;3.80;3.43;;;10.50;99.90;;;;;;4999439;28;20230;-65
2021/10/08 00:15:28;;;;;;;3.90;3.60;;;10.50;99.90;;;;;;4986980;28;20238;-65
2021/10/08 00:17:57;;;;;;;3.60;3.30;;;10.50;99.90;;;;;;4993573;28;20332;-65
2021/10/08 00:20:26;;;;;;;3.90;3.40;;;10.50;99.90;;;;;;4998015;28;20259;-65
2021/10/08 00:22:56;;;;;;;5.80;3.20;;;10.40;99.90;;;;;;4993972;28;20488;-65
2021/10/08 00:25:24;;;;;;;4.23;3.10;;;10.40;99.90;;;;;;4994122;28;20236;-65
2021/10/08 00:27:52;;;;;;;3.60;3.30;;;10.40;99.90;;;;;;5001280;28;20261;-65
2021/10/08 00:30:20;;;;;;;3.50;3.20;;;10.40;99.90;;;;;;4997369;28;20235;-65
2021/10/08 00:32:48;;;;;;;3.77;3.20;;;10.30;99.90;;;;;;4998500;28;20591;-65
2021/10/08 00:35:18;;;;;;;3.33;3.03;;;10.30;99.90;;;;;;4992139;28;20253;-65
2021/10/08 00:37:46;;;;;;;3.63;3.10;;;10.30;99.90;;;;;;4996294;28;20603;-65
2021/10/08 00:40:14;;;;;;;3.77;3.47;;;10.20;99.90;;;;;;4999166;28;20803;-65
2021/10/08 00:42:44;;;;;;;3.60;3.30;;;10.20;99.90;;;;;;4995471;28;20275;-65
2021/10/08 00:45:12;;;;;;;3.80;3.40;;;10.20;99.90;;;;;;4997022;28;20255;-64
2021/10/08 00:47:40;;;;;;;3.87;3.47;;;10.20;99.90;;;;;;4975725;28;20258;-65
2021/10/08 00:50:09;;;;;;;3.60;3.30;;;10.20;99.90;;;;;;4992103;28;20271;-65
2021/10/08 00:52:39;;;;;;;3.70;3.40;;;10.20;99.90;;;;;;4990520;28;20317;-65
2021/10/08 00:55:08;;;;;;;5.63;3.67;;;10.20;99.90;;;;;;4994521;28;20752;-65
2021/10/08 00:57:36;;;;;;;3.73;3.43;;;10.20;99.90;;;;;;4994099;28;20262;-65
2021/10/08 01:00:04;;;;;;;3.43;3.13;;;10.20;99.90;;;;;;4990470;28;20286;-65
2021/10/08 01:02:36;;;;;;;3.50;3.20;;;10.10;99.90;;;;;;4992157;28;20316;-65
2021/10/08 01:05:05;;;;;;;3.80;3.50;;;10.10;99.90;;;;;;4995577;28;20635;-65
2021/10/08 01:07:33;;;;;;;3.43;3.13;;;10.00;99.90;;;;;;4975727;28;20234;-65
2021/10/08 01:10:04;;;;;;;4.20;3.53;;;10.00;99.90;;;;;;4979410;28;20259;-65
2021/10/08 01:12:34;;;;;;;4.33;3.93;;;10.00;99.90;;;;;;4976299;28;20243;-65
2021/10/08 01:15:04;;;;;;;5.93;4.20;;;10.00;99.90;;;;;;4995668;28;20239;-66
2021/10/08 01:17:34;;;;;;;4.37;3.97;;;10.00;99.90;;;;;;4994264;28;20516;-64
2021/10/08 01:20:04;;;;;;;4.80;4.40;;;10.00;99.90;;;;;;4998507;28;20333;-65
2021/10/08 01:22:38;;;;;;;4.73;4.30;;;10.00;99.90;;;;;;4971095;28;20574;-65
2021/10/08 01:25:16;;;;;;;4.20;3.80;;;9.90;99.90;;;;;;4977673;28;20231;-65
2021/10/08 01:27:44;;;;;;;5.80;4.07;;;9.90;99.90;;;;;;4974312;28;20241;-66
2021/10/08 01:30:25;;;;;;;4.40;4.00;;;9.90;99.90;;;;;;4996683;28;20331;-65
2021/10/08 01:32:55;;;;;;;4.40;4.00;;;10.00;99.90;;;;;;4990892;28;20968;-65
2021/10/08 01:35:26;;;;;;;4.93;4.10;;;9.90;99.90;;;;;;4995923;28;20269;-64
2021/10/08 01:37:57;;;;;;;6.67;4.00;;;9.90;99.90;;;;;;4978795;28;20236;-65
2021/10/08 01:40:27;;;;;;;6.30;3.93;;;9.80;99.90;;;;;;4981879;28;20778;-65
2021/10/08 01:43:03;;;;;;;4.23;3.87;;;9.80;99.90;;;;;;4973705;28;20330;-65
2021/10/08 01:45:32;;;;;;;4.60;4.13;;;9.80;99.90;;;;;;4975818;28;20242;-66
2021/10/08 01:48:00;;;;;;;4.40;3.90;;;9.80;99.90;;;;;;4989189;28;20685;-65
2021/10/08 01:50:32;;;;;;;4.10;3.70;;;9.70;99.90;;;;;;4982710;28;20323;-65
2021/10/08 01:53:00;;;;;;;3.90;3.53;;;9.70;99.90;;;;;;4987542;28;20244;-65
2021/10/08 01:55:28;;;;;;;4.20;3.70;;;9.80;99.90;;;;;;4985167;28;20238;-66
2021/10/08 01:58:00;;;;;;;4.17;3.70;;;9.70;99.90;;;;;;4977057;28;20238;-65
2021/10/08 02:00:31;;;;;;;3.93;3.20;;;9.60;99.90;;;;;;4979410;28;20232;-65
2021/10/08 02:03:13;;;;;;;3.50;3.20;;;9.60;99.90;;;;;;4973165;28;20275;-66
2021/10/08 02:05:43;;;;;;;3.27;2.97;;;9.50;99.90;;;;;;4968620;28;20229;-65
2021/10/08 02:08:11;;;;;;;3.67;3.13;;;9.50;99.90;;;;;;4956482;28;20256;-65
2021/10/08 02:10:40;;;;;;;2.93;2.67;;;9.50;99.90;;;;;;4951238;28;20481;-65
2021/10/08 02:13:08;;;;;;;3.03;2.73;;;9.50;99.90;;;;;;4958043;28;20283;-65
2021/10/08 02:15:38;;;;;;;3.37;2.90;;;9.40;99.90;;;;;;4974071;28;20280;-65
2021/10/08 02:18:06;;;;;;;3.00;2.77;;;9.40;99.90;;;;;;4955342;28;20781;-66
2021/10/08 02:20:34;;;;;;;3.40;2.70;;;9.40;99.90;;;;;;4979144;28;20241;-65
2021/10/08 02:23:04;;;;;;;3.30;3.00;;;9.40;99.90;;;;;;4953578;28;20236;-65
2021/10/08 02:25:32;;;;;;;3.03;2.80;;;9.30;99.90;;;;;;4960673;28;20240;-64
2021/10/08 02:28:01;;;;;;;3.20;3.00;;;9.30;99.90;;;;;;4964454;28;20234;-65
2021/10/08 02:30:31;;;;;;;4.63;2.90;;;9.30;99.90;;;;;;4967654;28;20693;-65
2021/10/08 02:33:00;;;;;;;3.30;2.73;;;9.30;99.90;;;;;;4963406;28;20539;-65
2021/10/08 02:35:28;;;;;;;3.10;2.80;;;9.20;99.90;;;;;;4948119;28;20238;-65
2021/10/08 02:37:56;;;;;;;4.13;3.13;;;9.20;99.90;;;;;;4975979;28;20235;-65
2021/10/08 02:40:28;;;;;;;3.73;2.80;;;9.30;99.90;;;;;;4958884;28;20718;-64
2021/10/08 02:42:56;;;;;;;3.33;2.50;;;9.30;99.90;;;;;;4975889;28;20240;-65
2021/10/08 02:45:24;;;;;;;2.90;2.60;;;9.20;99.90;;;;;;4958535;28;20568;-65
2021/10/08 02:47:53;;;;;;;2.13;2.03;;;9.20;99.90;;;;;;4963600;28;20236;-65
2021/10/08 02:50:22;;;;;;;2.33;2.10;;;9.20;99.90;;;;;;4958709;28;20235;-64
2021/10/08 02:52:51;;;;;;;2.23;2.13;;;9.10;99.90;;;;;;4959087;28;20696;-64
2021/10/08 02:55:19;;;;;;;3.00;2.07;;;9.10;99.90;;;;;;4966175;28;20251;-65
2021/10/08 02:57:49;;;;;;;2.20;1.90;;;9.10;99.90;;;;;;4947767;28;20321;-64
2021/10/08 03:00:17;;;;;;;2.37;2.20;;;9.00;99.90;;;;;;4957980;28;20717;-65
2021/10/08 03:02:46;;;;;;;2.20;2.00;;;9.00;99.90;;;;;;4976443;28;20238;-65
2021/10/08 03:05:14;;;;;;;1.97;1.87;;;9.00;99.90;;;;;;4964793;28;20233;-64
2021/10/08 03:07:43;;;;;;;3.30;1.57;;;8.90;99.90;;;;;;4979372;28;20737;-64
2021/10/08 03:10:14;;;;;;;2.83;2.00;;;8.90;99.90;;;;;;4991327;28;20706;-65
2021/10/08 03:12:44;;;;;;;1.93;1.83;;;8.90;99.90;;;;;;4984337;28;20243;-65
2021/10/08 03:15:14;;;;;;;2.07;1.97;;;8.90;99.90;;;;;;4975975;28;20248;-65
2021/10/08 03:17:43;;;;;;;2.10;2.00;;;8.90;99.90;;;;;;4986940;28;20528;-65
2021/10/08 03:20:13;;;;;;;3.23;2.93;;;8.90;99.90;;;;;;4976661;28;20230;-65
2021/10/08 03:22:41;;;;;;;2.53;2.33;;;8.90;99.90;;;;;;4982693;28;20319;-65
2021/10/08 03:25:10;;;;;;;3.97;2.77;;;8.90;99.90;;;;;;4987552;28;20240;-65
2021/10/08 03:27:40;;;;;;;2.60;2.40;;;8.90;99.90;;;;;;4973785;28;20261;-64
2021/10/08 03:30:11;;;;;;;3.20;2.77;;;8.90;99.90;;;;;;4986790;28;20259;-65
2021/10/08 03:32:42;;;;;;;3.03;2.70;;;8.80;99.90;;;;;;4973211;28;20234;-65
2021/10/08 03:35:11;;;;;;;3.47;2.93;;;8.80;99.90;;;;;;4980365;28;20293;-65
2021/10/08 03:37:47;;;;;;;3.47;3.17;;;8.80;99.90;;;;;;4980844;28;20233;-65
2021/10/08 03:40:22;;;;;;;3.60;3.30;;;8.80;99.90;;;;;;4992703;28;20240;-65
2021/10/08 03:42:50;;;;;;;3.70;3.30;;;8.80;99.90;;;;;;4995891;28;20257;-64
2021/10/08 03:45:19;;;;;;;3.50;3.03;;;8.80;99.90;;;;;;4972792;28;20267;-64
2021/10/08 03:48:02;;;;;;;4.13;3.30;;;8.80;99.90;;;;;;4982345;28;20256;-65
2021/10/08 03:50:31;;;;;;;3.67;3.10;;;8.80;99.90;;;;;;4971717;28;20257;-65
2021/10/08 03:53:00;;;;;;;3.53;3.23;;;8.80;99.90;;;;;;4991909;28;20245;-65
2021/10/08 03:55:28;;;;;;;4.47;2.80;;;8.80;99.90;;;;;;4987180;28;20296;-65
2021/10/08 03:57:56;;;;;;;4.20;3.17;;;8.70;99.90;;;;;;4974491;28;20234;-65
2021/10/08 04:00:25;;;;;;;3.70;3.27;;;8.70;99.90;;;;;;4987831;28;20230;-64
2021/10/08 04:03:07;;;;;;;3.10;2.80;;;8.70;99.90;;;;;;4972758;28;20242;-65
2021/10/08 04:05:35;;;;;;;5.37;2.90;;;8.70;99.90;;;;;;4984841;28;20718;-65
2021/10/08 04:08:03;;;;;;;3.53;3.17;;;8.70;99.90;;;;;;4985816;28;20657;-65
2021/10/08 04:10:33;;;;;;;3.73;3.33;;;8.70;99.90;;;;;;4984519;28;20229;-65
2021/10/08 04:13:01;;;;;;;3.70;3.40;;;8.70;99.90;;;;;;4993941;28;20507;-65
2021/10/08 04:15:34;;;;;;;3.43;3.13;;;8.80;99.90;;;;;;4991681;28;20237;-65
2021/10/08 04:18:03;;;;;;;4.47;4.07;;;8.80;99.90;;;;;;4971901;28;20709;-65
2021/10/08 04:20:33;;;;;;;4.83;4.40;;;8.90;99.90;;;;;;4972156;28;20234;-65
2021/10/08 04:23:03;;;;;;;5.17;4.33;;;8.90;99.90;;;;;;4987018;28;20697;-65
2021/10/08 04:25:31;;;;;;;4.67;4.27;;;9.00;99.90;;;;;;4986793;28;20239;-65
2021/10/08 04:28:00;;;;;;;4.20;3.73;;;8.90;99.90;;;;;;4970215;28;20238;-64
2021/10/08 04:30:32;;;;;;;3.87;3.50;;;8.80;99.90;;;;;;4972798;28;20645;-65
2021/10/08 04:33:01;;;;;;;3.63;3.33;;;8.80;99.90;;;;;;4975889;28;20594;-64
2021/10/08 04:35:29;;;;;;;3.87;3.30;;;8.80;99.90;;;;;;4972769;28;20755;-65
2021/10/08 04:38:02;;;;;;;4.67;3.30;;;8.60;99.90;;;;;;4990592;28;20244;-65
2021/10/08 04:40:30;;;;;;;4.70;3.70;;;8.60;99.90;;;;;;4988054;28;20242;-64
2021/10/08 04:42:59;;;;;;;4.67;3.90;;;8.60;99.90;;;;;;4991662;28;20230;-65
2021/10/08 04:45:27;;;;;;;4.07;3.67;;;8.60;99.90;;;;;;4976765;28;20236;-64
2021/10/08 04:47:56;;;;;;;5.83;4.37;;;8.60;99.90;;;;;;4994692;28;20235;-64
2021/10/08 04:50:27;;;;;;;5.60;4.60;;;8.60;99.90;;;;;;4968066;28;20312;-64
2021/10/08 04:52:56;;;;;;;4.07;3.73;;;8.70;99.90;;;;;;4982800;28;20695;-64
2021/10/08 04:55:25;;;;;;;5.80;5.00;;;8.60;99.90;;;;;;4990006;28;20238;-65
2021/10/08 04:57:53;;;;;;;6.37;4.60;;;8.70;99.90;;;;;;4974734;28;20249;-65
2021/10/08 05:00:21;;;;;;;8.13;5.00;;;8.70;99.90;;;;;;4996869;28;20242;-65
2021/10/08 05:02:49;;;;;;;6.77;4.77;;;8.70;99.90;;;;;;4991811;28;20552;-65
2021/10/08 05:05:18;;;;;;;4.67;4.20;;;8.70;99.90;;;;;;4994337;28;20242;-64
2021/10/08 05:07:46;;;;;;;7.53;4.17;;;8.60;99.90;;;;;;4978971;28;20234;-65
2021/10/08 05:10:15;;;;;;;6.73;4.27;;;8.70;99.90;;;;;;4994797;28;20237;-65
2021/10/08 05:12:48;;;;;;;3.80;3.50;;;8.50;99.90;;;;;;4979930;28;20242;-64
2021/10/08 05:15:16;;;;;;;5.97;4.20;;;8.50;99.90;;;;;;4973933;28;20270;-65
2021/10/08 05:17:44;;;;;;;3.77;3.33;;;8.60;99.90;;;;;;4992194;28;20329;-64
2021/10/08 05:20:13;;;;;;;3.43;2.87;;;8.50;99.90;;;;;;4987696;28;20249;-65
2021/10/08 05:22:47;;;;;;;3.63;3.27;;;8.40;99.90;;;;;;4967222;28;20253;-64
2021/10/08 05:25:16;;;;;;;5.07;3.00;;;8.30;99.90;;;;;;4985359;28;20242;-64
2021/10/08 05:27:44;;;;;;;3.33;3.03;;;8.30;99.90;;;;;;4965721;28;20634;-65
2021/10/08 05:30:15;;;;;;;3.57;2.60;;;8.20;99.90;;;;;;4968186;28;20725;-65
2021/10/08 05:32:44;;;;;;;3.13;2.63;;;8.20;99.90;;;;;;4970363;28;20312;-65
2021/10/08 05:35:13;;;;;;;2.50;2.30;;;8.20;99.90;;;;;;4966841;28;20615;-65
2021/10/08 05:37:42;;;;;;;2.50;2.17;;;8.20;99.90;;;;;;4972320;28;20229;-65
2021/10/08 05:40:12;;;;;;;2.83;2.50;;;8.20;99.90;;;;;;4982532;28;20507;-65
2021/10/08 05:42:43;;;;;;;5.33;2.60;;;8.20;99.90;;;;;;4987561;28;20249;-65
2021/10/08 05:45:12;;;;;;;4.17;3.00;;;8.20;99.90;;;;;;4971520;28;20261;-65
2021/10/08 05:47:41;;;;;;;3.77;3.10;;;8.20;99.90;;;;;;4971538;28;20780;-65
2021/10/08 05:50:10;;;;;;;5.40;3.40;;;8.20;99.90;;;;;;4971454;28;20234;-65
2021/10/08 05:52:39;;;;;;;4.33;3.17;;;8.20;99.90;;;;;;4967176;28;20253;-65
2021/10/08 05:55:08;;;;;;;3.57;3.27;;;8.20;99.90;;;;;;4966078;28;20234;-65
2021/10/08 05:57:36;;;;;;;3.43;3.03;;;8.10;99.90;;;;;;4963501;28;20235;-65
2021/10/08 06:00:06;;;;;;;3.80;3.50;;;8.10;99.90;;;;;;4980066;28;20599;-65
2021/10/08 06:03:02;;;;;;;4.13;3.43;;;8.10;99.90;;;;;;4981898;28;20246;-65
2021/10/08 06:05:30;;;;;;;4.20;3.80;;;8.10;99.90;;;;;;4968975;28;20253;-64
2021/10/08 06:07:58;;;;;;;6.93;3.80;;;8.10;99.90;;;;;;4988492;28;20590;-65
2021/10/08 06:10:28;;;;;;;4.30;3.90;;;8.10;99.90;;;;;;4969113;28;20253;-64
2021/10/08 06:12:57;;;;;;;4.43;4.00;;;8.20;99.90;;;;;;4991218;28;20261;-65
2021/10/08 06:15:25;;;;;;;4.93;4.40;;;8.20;99.90;;;;;;4995408;28;20232;-65
2021/10/08 06:17:55;;;;;;;6.10;5.13;;;8.20;99.90;;;;;;4969440;28;20261;-64
2021/10/08 06:20:25;;;;;;;5.77;5.20;;;8.20;99.90;;;;;;4983308;28;20242;-65
2021/10/08 06:22:56;;;;;;;9.80;5.77;;;8.20;99.90;;;;;;4990983;28;20647;-65
2021/10/08 06:25:24;;;;;;;7.17;5.17;;;8.20;99.90;;;;;;4980283;28;20245;-65
2021/10/08 06:27:56;;;;;;;5.73;5.13;;;8.30;99.90;;;;;;4979591;28;20238;-65
2021/10/08 06:30:28;;;;;;;7.00;4.90;;;8.30;99.90;;;;;;4965731;28;20226;-65
2021/10/08 06:32:56;;;;;;;5.10;4.60;;;8.40;99.90;;;;;;4968857;28;20230;-65
2021/10/08 06:35:26;;;;;;;5.33;4.60;;;8.40;99.90;;;;;;4988990;28;20258;-64
2021/10/08 06:37:56;;;;;;;4.90;4.40;;;8.50;99.90;;;;;;4968160;28;20226;-65
2021/10/08 06:40:26;;;;;;;5.20;4.70;;;8.60;99.90;;;;;;4990138;28;20597;-64
2021/10/08 06:42:56;;;;;;;5.43;4.90;;;8.70;99.90;;;;;;4985383;28;20234;-64
2021/10/08 06:45:43;;;;;;;5.63;4.70;;;8.80;99.90;;;;;;4971984;28;20268;-65
2021/10/08 06:48:15;;;;;;;5.57;4.97;;;9.00;99.90;;;;;;4969480;28;20241;-65
2021/10/08 06:50:47;;;;;;;5.50;4.87;;;9.10;99.90;;;;;;4983264;28;20238;-65
2021/10/08 06:53:17;;;;;;;5.70;4.97;;;9.20;99.90;;;;;;4971356;28;20321;-65
2021/10/08 06:55:48;;;;;;;5.73;5.00;;;9.30;99.90;;;;;;4974189;28;20233;-64
2021/10/08 06:58:23;;;;;;;5.00;4.50;;;9.50;99.90;;;;;;4991246;28;20243;-65
2021/10/08 07:00:53;;;;;;;6.17;5.00;;;9.60;99.90;;;;;;4973234;28;20575;-65
2021/10/08 07:03:23;;;;;;;5.53;4.90;;;9.70;99.90;;;;;;4983352;28;20288;-65
2021/10/08 07:05:53;;;;;;;5.13;4.30;;;9.90;99.90;;;;;;4985443;28;20271;-65
2021/10/08 07:08:21;;;;;;;4.80;4.20;;;10.00;99.90;;;;;;4970823;28;20250;-66
2021/10/08 07:10:50;;;;;;;4.93;4.10;;;10.20;99.90;;;;;;4991988;28;20234;-65
2021/10/08 07:13:18;;;;;;;4.57;4.00;;;10.30;99.90;;;;;;4973733;28;20781;-65
2021/10/08 07:15:46;;;;;;;4.10;3.80;;;10.50;99.90;;;;;;4995714;28;20760;-65
2021/10/08 07:18:35;;;;;;;4.53;4.03;;;10.60;99.90;;;;;;4985186;28;20312;-65
2021/10/08 07:21:06;;;;;;;4.30;3.90;;;10.80;99.90;;;;;;4984857;28;20331;-65
2021/10/08 07:23:35;;;;;;;5.33;3.83;;;11.00;99.90;;;;;;4983805;28;20262;-66
2021/10/08 07:26:03;;;;;;;5.23;4.30;;;11.20;99.90;;;;;;4982995;28;20229;-66
2021/10/08 07:28:31;;;;;;;4.80;3.97;;;11.40;99.90;;;;;;4980841;28;20239;-65
2021/10/08 07:30:59;;;;;;;6.63;4.83;;;11.70;99.90;;;;;;4982077;28;20263;-66
2021/10/08 07:33:27;;;;;;;5.43;4.63;;;11.90;99.90;;;;;;4981871;28;20652;-66
2021/10/08 07:35:55;;;;;;;7.63;5.47;;;12.20;99.90;;;;;;4978573;28;20242;-65
2021/10/08 07:38:25;;;;;;;5.90;4.73;;;12.50;99.90;;;;;;4976184;28;20263;-66
2021/10/08 07:40:53;;;;;;;4.63;4.23;;;12.60;99.90;;;;;;4975272;28;20602;-65
2021/10/08 07:43:21;;;;;;;4.70;4.20;;;12.70;99.90;;;;;;4977112;28;20775;-66
2021/10/08 07:45:49;;;;;;;4.63;4.10;;;12.80;99.90;;;;;;4979107;28;20237;-66
2021/10/08 07:48:17;;;;;;;5.33;4.83;;;13.00;99.90;;;;;;4974209;28;20253;-66
2021/10/08 07:54:18;;;;;;;4.20;3.80;;;13.40;99.90;;;;;;4925365;28;20297;-65
2021/10/08 07:56:47;;;;;;;4.83;4.40;;;13.70;99.90;;;;;;4980184;28;20719;-66
2021/10/08 07:59:15;;;;;;;4.37;3.97;;;13.90;99.90;;;;;;4982413;28;20243;-66
2021/10/08 08:01:43;;;;;;;5.10;4.60;;;14.10;99.90;;;;;;4975205;28;20694;-66
2021/10/08 08:04:12;;;;;;;6.67;5.97;;;14.30;99.90;;;;;;4978198;28;20242;-66
2021/10/08 08:06:44;;;;;;;4.53;4.20;;;14.60;99.90;;;;;;4981397;28;20229;-66
2021/10/08 08:09:12;;;;;;;6.83;5.87;;;14.80;99.90;;;;;;4979522;28;20264;-66
2021/10/08 08:11:42;;;;;;;5.93;5.33;;;15.00;99.90;;;;;;4980369;28;20229;-66
2021/10/08 08:14:11;;;;;;;5.80;5.30;;;15.20;99.90;;;;;;4981697;28;20317;-66
2021/10/08 08:16:39;;;;;;;6.27;5.53;;;15.40;99.90;;;;;;4982524;28;20245;-65
2021/10/08 08:19:08;;;;;;;7.47;6.77;;;15.60;99.90;;;;;;4981563;28;20244;-66
2021/10/08 08:21:36;;;;;;;7.40;6.70;;;15.80;99.90;;;;;;4981082;28;20241;-65
2021/10/08 08:24:05;;;;;;;11.50;8.50;;;16.10;99.90;;;;;;4983611;28;20239;-66
2021/10/08 08:26:33;;;;;;;8.93;8.13;;;16.20;99.90;;;;;;4986346;28;20320;-66
2021/10/08 08:29:08;;;;;;;8.20;7.40;;;16.40;99.90;;;;;;3187811;28;10024476;-66
2021/10/08 08:31:36;;;;;;;9.40;8.40;;;16.60;99.90;;;;;;3264405;28;10002080;-66
2021/10/08 08:34:04;;;;;;;8.97;8.07;;;16.90;99.90;;;;;;4967064;28;20506;-66
2021/10/08 08:36:34;;;;;;;7.50;6.80;;;16.90;99.90;;;;;;4987435;28;20237;-67
2021/10/08 08:39:07;;;;;;;11.13;9.00;;;17.10;99.90;;;;;;4988966;28;20788;-67
2021/10/08 08:41:36;;;;;;;9.30;8.40;;;17.20;99.90;;;;;;4984299;28;20253;-66
2021/10/08 08:44:05;;;;;;;10.70;9.47;;;17.40;99.90;;;;;;4984185;28;20229;-65
2021/10/08 08:46:35;;;;;;;10.63;9.27;;;17.60;99.90;;;;;;4984810;28;20237;-66
2021/10/08 08:49:04;;;;;;;9.43;8.53;;;17.80;99.90;;;;;;4985371;28;20835;-66
2021/10/08 08:51:32;;;;;;;10.57;8.80;;;17.90;99.90;;;;;;4985642;28;20242;-67
2021/10/08 08:54:03;;;;;;;10.47;8.20;;;18.00;99.90;;;;;;4986316;28;20396;-66
2021/10/08 08:56:31;;;;;;;8.63;7.83;;;18.20;99.90;;;;;;4987407;28;20337;-66
2021/10/08 08:59:00;;;;;;;8.90;8.00;;;18.40;99.90;;;;;;4987996;28;20279;-66
2021/10/08 09:01:29;;;;;;;9.40;7.63;;;18.50;99.90;;;;;;4985630;28;20286;-67
2021/10/08 09:04:05;;;;;;;9.67;7.37;;;18.40;99.90;;;;;;4981619;28;20589;-66
2021/10/08 09:06:38;;;;;;;8.27;7.47;;;18.60;99.90;;;;;;4988540;28;20246;-66
2021/10/08 09:09:17;;;;;;;9.13;7.33;;;18.60;99.90;;;;;;4989772;28;20235;-66
2021/10/08 09:11:45;;;;;;;8.57;6.70;;;18.50;99.90;;;;;;4984738;28;20245;-67
2021/10/08 09:14:18;;;;;;;7.27;6.00;;;18.70;99.90;;;;;;4983467;28;20238;-66
2021/10/08 09:17:06;;;;;;;8.00;5.47;;;18.70;99.90;;;;;;4989973;28;20360;-66
2021/10/08 09:19:52;;;;;;;6.27;4.87;;;18.70;99.90;;;;;;4989528;28;20317;-66
2021/10/08 09:22:22;;;;;;;6.17;4.80;;;18.70;99.90;;;;;;4990268;28;20288;-66
2021/10/08 09:24:50;;;;;;;5.87;4.30;;;18.90;99.90;;;;;;4987629;28;20247;-66
2021/10/08 09:27:21;;;;;;;9.33;5.13;;;19.00;99.90;;;;;;4988041;28;20250;-66
2021/10/08 09:29:52;;;;;;;6.17;4.97;;;18.80;99.90;;;;;;4989370;28;20236;-66
2021/10/08 09:32:22;;;;;;;6.83;4.30;;;18.60;99.90;;;;;;4989757;28;20338;-66
2021/10/08 09:35:05;;;;;;;8.50;5.20;;;18.60;99.90;;;;;;4990413;28;20245;-66
2021/10/08 09:37:34;;;;;;;6.90;4.67;;;18.60;99.90;;;;;;4988874;28;20319;-66
2021/10/08 09:40:03;;;;;;;6.90;4.90;;;18.90;99.90;;;;;;4983084;28;20239;-66
2021/10/08 09:42:34;;;;;;;7.93;4.50;;;19.10;99.90;;;;;;4982318;28;20263;-67
2021/10/08 09:45:04;;;;;;;5.80;4.40;;;19.00;99.90;;;;;;4982247;28;20248;-66
2021/10/08 09:47:33;;;;;;;5.17;3.80;;;19.00;99.90;;;;;;4983650;28;20247;-66
2021/10/08 09:50:10;;;;;;;5.83;4.80;;;19.30;99.90;;;;;;4982474;28;20808;-66
2021/10/08 09:52:39;;;;;;;6.10;4.83;;;19.50;99.90;;;;;;4987982;28;20567;-65
2021/10/08 09:55:10;;;;;;;6.87;4.50;;;19.50;99.90;;;;;;4981271;28;20324;-67
2021/10/08 09:57:58;;;;;;;8.87;4.20;;;19.60;99.90;;;;;;4980986;28;20357;-66
2021/10/08 10:00:39;;;;;;;6.37;3.80;;;19.50;99.90;;;;;;4986735;28;20335;-66
2021/10/08 10:03:09;;;;;;;5.50;3.50;;;19.80;99.90;;;;;;4983747;28;20243;-66
2021/10/08 10:05:39;;;;;;;7.73;3.80;;;19.70;99.90;;;;;;4984412;28;20240;-66
2021/10/08 10:08:08;;;;;;;7.93;3.70;;;19.90;99.90;;;;;;4982657;28;20729;-65
2021/10/08 10:10:38;;;;;;;5.27;3.43;;;20.00;99.90;;;;;;4986453;28;20325;-65
2021/10/08 10:13:09;;;;;;;6.83;3.63;;;20.00;99.90;;;;;;4986574;28;20663;-66
2021/10/08 10:15:39;;;;;;;7.30;3.83;;;20.00;99.90;;;;;;4984772;28;20243;-65
2021/10/08 10:18:11;;;;;;;5.77;3.20;;;20.20;99.90;;;;;;4987031;28;20248;-66
2021/10/08 10:20:46;;;;;;;5.73;3.93;;;20.10;99.90;;;;;;4986327;28;20272;-66
2021/10/08 10:23:16;;;;;;;4.33;3.30;;;20.30;99.90;;;;;;4987073;28;20255;-66
2021/10/08 10:25:46;;;;;;;6.43;3.90;;;20.50;99.90;;;;;;4983321;28;20539;-66
2021/10/08 10:28:15;;;;;;;5.90;3.40;;;20.50;99.90;;;;;;4985306;28;20283;-66
2021/10/08 10:30:46;;;;;;;7.37;4.40;;;20.40;99.90;;;;;;4983304;28;20236;-66
2021/10/08 10:33:16;;;;;;;6.57;3.70;;;19.90;99.90;;;;;;4985907;28;20252;-66
2021/10/08 10:35:47;;;;;;;6.90;4.13;;;19.90;99.90;;;;;;4993047;28;20322;-66
2021/10/08 10:38:40;;;;;;;5.63;4.50;;;20.00;99.90;;;;;;4994979;28;20245;-66
2021/10/08 10:41:24;;;;;;;6.77;4.60;;;19.80;99.90;;;;;;4963628;28;20608;-65
2021/10/08 10:44:12;;;;;;;6.40;4.60;;;19.90;99.90;;;;;;4990290;28;20306;-66
2021/10/08 10:46:45;;;;;;;8.30;5.13;;;19.90;99.90;;;;;;4989429;28;20257;-65
2021/10/08 10:52:28;;;;;;;5.93;4.90;;;20.10;99.90;;;;;;4992105;28;20248;-66
2021/10/08 10:55:14;;;;;;;8.17;5.10;;;20.10;99.90;;;;;;4993020;28;20322;-65
2021/10/08 10:58:13;;;;;;;5.70;5.17;;;20.10;99.90;;;;;;4984860;28;20262;-65
2021/10/08 11:00:47;;;;;;;6.60;4.73;;;20.20;99.90;;;;;;4993158;28;20291;-66
2021/10/08 11:03:19;;;;;;;7.33;5.40;;;20.20;99.90;;;;;;4987682;28;20244;-66
2021/10/08 11:06:10;;;;;;;9.27;5.30;;;20.30;99.90;;;;;;4990841;28;20339;-66
2021/10/08 11:09:26;;;;;;;9.13;4.97;;;20.60;99.90;;;;;;4989935;28;20241;-65
2021/10/08 11:12:34;;;;;;;6.00;5.13;;;20.60;99.90;;;;;;4989100;28;20240;-65
2021/10/08 11:15:33;;;;;;;7.80;5.17;;;20.60;99.90;;;;;;4988837;28;20291;-66
2021/10/08 11:18:03;;;;;;;6.83;4.97;;;20.40;99.90;;;;;;4982408;28;20241;-65
2021/10/08 11:20:49;;;;;;;6.53;4.37;;;20.20;99.90;;;;;;4983591;28;20561;-66
2021/10/08 11:23:26;;;;;;;4.87;4.27;;;20.40;99.90;;;;;;4987698;28;20265;-65
2021/10/08 11:25:56;;;;;;;7.30;3.80;;;20.70;99.90;;;;;;4986524;28;20264;-66
2021/10/08 11:28:30;;;;;;;7.03;4.27;;;20.60;99.90;;;;;;4985100;28;20701;-66
2021/10/08 11:30:59;;;;;;;5.63;3.67;;;20.40;99.90;;;;;;4985599;28;20275;-66
2021/10/08 11:33:32;;;;;;;7.67;3.53;;;20.20;99.90;;;;;;4987857;28;20237;-65
2021/10/08 11:36:18;;;;;;;5.90;4.13;;;20.20;99.90;;;;;;4987610;28;20581;-65
2021/10/08 11:38:47;;;;;;;6.90;3.70;;;19.90;99.90;;;;;;4985309;28;20248;-65
2021/10/08 11:41:22;;;;;;;4.53;3.23;;;19.80;99.90;;;;;;4984212;28;20331;-66
2021/10/08 11:44:06;;;;;;;7.23;2.80;;;19.40;99.90;;;;;;4995243;28;20237;-65
2021/10/08 11:46:49;;;;;;;21.27;3.60;;;19.40;99.90;;;;;;4987121;28;20321;-64
2021/10/08 11:52:06;;;;;;;7.03;3.67;;;19.30;99.90;;;;;;4991853;28;20291;-68
2021/10/08 11:54:34;;;;;;;3.17;2.53;;;19.30;99.90;;;;;;4989299;28;20667;-67
2021/10/08 11:57:05;;;;;;;2.60;2.33;;;19.00;99.90;;;;;;4984325;28;20238;-66
2021/10/08 11:59:36;;;;;;;2.30;2.10;;;19.20;99.90;;;;;;4994372;28;20241;-67
2021/10/08 12:02:10;;;;;;;3.40;2.57;;;19.10;99.90;;;;;;4992229;28;20236;-66
2021/10/08 12:04:39;;;;;;;3.30;2.27;;;19.10;99.90;;;;;;4981408;28;20236;-66
2021/10/08 12:07:09;;;;;;;2.63;2.20;;;19.10;99.90;;;;;;4989831;28;20291;-66
2021/10/08 12:09:37;;;;;;;2.93;2.10;;;19.10;99.90;;;;;;4990354;28;20229;-66
2021/10/08 12:12:15;;;;;;;2.53;2.00;;;19.10;99.90;;;;;;4993438;28;20282;-67
2021/10/08 12:14:46;;;;;;;3.83;2.00;;;19.00;99.90;;;;;;4994930;28;20261;-67
2021/10/08 12:17:20;;;;;;;4.57;2.13;;;19.00;99.90;;;;;;4996800;28;20252;-66
2021/10/08 12:19:51;;;;;;;3.77;2.03;;;18.90;99.90;;;;;;4992189;28;20253;-67
2021/10/08 12:22:24;;;;;;;4.87;2.47;;;18.80;99.90;;;;;;4994298;28;20236;-66
2021/10/08 12:25:03;;;;;;;3.83;2.23;;;18.70;99.90;;;;;;4992191;28;20251;-67
2021/10/08 12:27:33;;;;;;;4.17;2.57;;;18.80;99.90;;;;;;4987568;28;20663;-67
2021/10/08 12:30:03;;;;;;;4.67;2.50;;;18.80;99.90;;;;;;5000510;28;20232;-67
2021/10/08 12:32:31;;;;;;;4.87;2.33;;;19.00;99.90;;;;;;4996563;28;20248;-67
2021/10/08 12:34:59;;;;;;;2.37;2.13;;;18.90;99.90;;;;;;4998127;28;20264;-67
2021/10/08 12:37:29;;;;;;;3.83;3.00;;;18.70;99.90;;;;;;4992600;28;20233;-66
2021/10/08 12:40:08;;;;;;;3.73;2.40;;;18.60;99.90;;;;;;4991923;28;20267;-67
2021/10/08 12:42:39;;;;;;;3.73;2.27;;;18.40;99.90;;;;;;4985627;28;20582;-67
2021/10/08 12:45:20;;;;;;;3.83;2.00;;;18.60;99.90;;;;;;4995072;28;20324;-67
2021/10/08 12:47:50;;;;;;;3.30;2.50;;;18.60;99.90;;;;;;4988449;28;20340;-66
2021/10/08 12:50:20;;;;;;;3.77;2.30;;;18.50;99.90;;;;;;4995709;28;20734;-67
2021/10/08 12:52:50;;;;;;;4.43;1.80;;;18.30;99.90;;;;;;4996699;28;20294;-67
2021/10/08 12:55:19;;;;;;;3.00;2.10;;;18.40;99.90;;;;;;4991202;28;20255;-66
2021/10/08 12:58:03;;;;;;;4.93;2.10;;;18.30;99.90;;;;;;4995482;28;20259;-66
2021/10/08 13:00:36;;;;;;;4.87;1.87;;;18.20;99.90;;;;;;4989992;28;20236;-66
2021/10/08 13:03:04;;;;;;;2.93;2.10;;;18.30;99.90;;;;;;5001834;28;20236;-66
2021/10/08 13:05:40;;;;;;;4.57;2.00;;;18.10;99.90;;;;;;4994874;28;20232;-66
2021/10/08 13:08:13;;;;;;;4.30;1.80;;;18.20;99.90;;;;;;4992055;28;20236;-67
2021/10/08 13:10:58;;;;;;;5.10;1.70;;;18.30;99.90;;;;;;4988012;28;20243;-67
2021/10/08 13:13:28;;;;;;;3.80;1.80;;;18.20;99.90;;;;;;4998140;28;20234;-66
2021/10/08 13:15:58;;;;;;;2.87;1.60;;;18.30;99.90;;;;;;4994471;28;20705;-66
2021/10/08 13:18:39;;;;;;;3.17;1.43;;;18.30;99.90;;;;;;5003346;28;20235;-67
2021/10/08 13:21:07;;;;;;;3.43;2.00;;;18.20;99.90;;;;;;5000346;28;20293;-67